createdAt,value
2023-01-25T00:01:10.350Z,103280.66
2023-01-25T00:03:38.268Z,103278.91
2023-01-25T00:06:06.450Z,103273.47
2023-01-25T00:08:34.559Z,103268.94
2023-01-25T00:11:02.379Z,103277.06
2023-01-25T00:13:30.208Z,103267.16
2023-01-25T00:16:02.603Z,103271.63
2023-01-25T00:18:32.252Z,103270.75
2023-01-25T00:21:00.121Z,103262.63
2023-01-25T00:23:27.989Z,103253.63
2023-01-25T00:25:58.857Z,103252.72
2023-01-25T00:28:26.827Z,103254.53
2023-01-25T00:30:54.710Z,103254.53
2023-01-25T00:33:45.167Z,103257.22
2023-01-25T00:36:35.469Z,103250.03
2023-01-25T00:39:05.444Z,103250.94
2023-01-25T00:41:33.561Z,103242.81
2023-01-25T00:44:01.348Z,103240.09
2023-01-25T00:46:29.330Z,103239.19
2023-01-25T00:48:58.766Z,103239.16
2023-01-25T00:51:26.980Z,103234.69
2023-01-25T00:53:54.964Z,103228.38
2023-01-25T00:56:23.049Z,103227.50
2023-01-25T00:58:50.868Z,103223.91
2023-01-25T01:01:20.560Z,103222.13
2023-01-25T01:03:48.376Z,103228.44
2023-01-25T01:06:17.702Z,103220.31
2023-01-25T01:08:46.462Z,103217.69
2023-01-25T01:11:14.586Z,103227.59
2023-01-25T01:13:42.522Z,103221.31
2023-01-25T01:16:13.069Z,103220.41
2023-01-25T01:18:43.604Z,103231.22
2023-01-25T01:21:12.238Z,103224.94
2023-01-25T01:23:42.093Z,103219.56
2023-01-25T01:26:12.973Z,103224.97
2023-01-25T01:28:40.970Z,103229.53
2023-01-25T01:31:12.718Z,103226.81
2023-01-25T01:33:45.409Z,103229.56
2023-01-25T01:36:15.729Z,103227.75
2023-01-25T01:38:45.991Z,103230.44
2023-01-25T01:41:14.468Z,103225.97
2023-01-25T01:43:42.870Z,103234.06
2023-01-25T01:46:17.695Z,103227.75
2023-01-25T01:48:50.206Z,103232.28
2023-01-25T01:51:25.274Z,103224.19
2023-01-25T01:54:00.579Z,103225.06
2023-01-25T01:56:35.534Z,103221.47
2023-01-25T01:59:06.127Z,103217.94
2023-01-25T02:01:34.401Z,103216.13
2023-01-25T02:04:06.818Z,103216.13
2023-01-25T02:06:42.690Z,103212.53
2023-01-25T02:09:12.703Z,103213.44
2023-01-25T02:11:41.908Z,103213.44
2023-01-25T02:14:10.034Z,103211.63
2023-01-25T02:16:37.919Z,103211.63
2023-01-25T02:19:07.584Z,103204.44
2023-01-25T02:21:42.125Z,103211.63
2023-01-25T02:24:18.417Z,103208.94
2023-01-25T02:26:47.869Z,103204.44
2023-01-25T02:29:16.316Z,103206.25
2023-01-25T02:31:46.475Z,103206.25
2023-01-25T02:34:14.398Z,103208.06
2023-01-25T02:36:42.322Z,103203.56
2023-01-25T02:39:13.975Z,103203.56
2023-01-25T02:41:44.261Z,103199.06
2023-01-25T02:44:16.945Z,103200.88
2023-01-25T02:46:46.558Z,103196.38
2023-01-25T02:49:15.515Z,103194.59
2023-01-25T02:51:44.674Z,103195.47
2023-01-25T02:54:14.546Z,103189.19
2023-01-25T02:56:42.420Z,103191.00
2023-01-25T02:59:13.699Z,103191.00
2023-01-25T03:01:46.749Z,103191.88
2023-01-25T03:04:15.774Z,103192.78
2023-01-25T03:06:43.809Z,103193.69
2023-01-25T03:09:13.161Z,103190.06
2023-01-25T03:11:45.122Z,103195.81
2023-01-25T03:14:14.427Z,103189.25
2023-01-25T03:16:42.219Z,103192.84
2023-01-25T03:19:10.985Z,103191.94
2023-01-25T03:21:41.667Z,103197.34
2023-01-25T03:24:11.542Z,103196.47
2023-01-25T03:27:02.294Z,103192.88
2023-01-25T03:29:54.121Z,103183.91
2023-01-25T03:32:24.148Z,103183.06
2023-01-25T03:34:53.001Z,103192.97
2023-01-25T03:37:21.618Z,103179.47
2023-01-25T03:39:50.354Z,103178.56
2023-01-25T03:42:21.129Z,103180.38
2023-01-25T03:44:54.121Z,103185.78
2023-01-25T03:47:21.980Z,103174.09
2023-01-25T03:49:49.725Z,103171.38
2023-01-25T03:52:19.834Z,103178.59
2023-01-25T03:54:48.595Z,103177.69
2023-01-25T03:57:16.568Z,103169.59
2023-01-25T03:59:56.450Z,103169.59
2023-01-25T04:02:24.508Z,103166.88
2023-01-25T04:04:52.307Z,103156.97
2023-01-25T04:07:22.044Z,103150.69
2023-01-25T04:09:51.375Z,103154.28
2023-01-25T04:12:19.793Z,103154.28
2023-01-25T04:14:48.038Z,103150.66
2023-01-25T04:17:24.208Z,103146.16
2023-01-25T04:19:55.084Z,103130.91
2023-01-25T04:22:27.488Z,103138.09
2023-01-25T04:24:57.413Z,103129.09
2023-01-25T04:27:25.401Z,103129.97
2023-01-25T04:29:59.714Z,103127.31
2023-01-25T04:32:29.768Z,103121.00
2023-01-25T04:34:59.094Z,103114.69
2023-01-25T04:37:29.312Z,103116.47
2023-01-25T04:39:59.640Z,103117.38
2023-01-25T04:42:31.087Z,103119.19
2023-01-25T04:44:59.858Z,103121.84
2023-01-25T04:47:29.400Z,103121.78
2023-01-25T04:49:57.354Z,103115.47
2023-01-25T04:52:29.099Z,103114.56
2023-01-25T04:54:56.968Z,103105.56
2023-01-25T04:57:25.155Z,103111.84
2023-01-25T04:59:53.937Z,103108.22
2023-01-25T05:02:23.914Z,103105.50
2023-01-25T05:04:53.164Z,103103.63
2023-01-25T05:07:22.049Z,103097.34
2023-01-25T05:09:49.874Z,103102.72
2023-01-25T05:12:20.275Z,103097.31
2023-01-25T05:15:01.775Z,103098.22
2023-01-25T05:17:29.631Z,103099.09
2023-01-25T05:19:58.825Z,103090.06
2023-01-25T05:22:26.767Z,103099.06
2023-01-25T05:24:54.633Z,103090.97
2023-01-25T05:27:22.679Z,103090.06
2023-01-25T05:29:57.293Z,103088.25
2023-01-25T05:32:37.540Z,103090.06
2023-01-25T05:35:07.811Z,103094.50
2023-01-25T05:37:36.183Z,103086.38
2023-01-25T05:40:10.086Z,103076.47
2023-01-25T05:42:39.850Z,103079.19
2023-01-25T05:45:14.312Z,103086.38
2023-01-25T05:47:43.385Z,103082.78
2023-01-25T05:50:12.835Z,103080.97
2023-01-25T05:52:53.533Z,103085.50
2023-01-25T05:55:21.409Z,103087.28
2023-01-25T05:57:50.424Z,103080.06
2023-01-25T06:00:19.589Z,103083.66
2023-01-25T06:02:47.549Z,103080.94
2023-01-25T06:05:20.991Z,103077.38
2023-01-25T06:07:49.733Z,103070.16
2023-01-25T06:10:19.361Z,103073.75
2023-01-25T06:12:50.356Z,103073.75
2023-01-25T06:15:18.307Z,103069.25
2023-01-25T06:17:46.138Z,103072.84
2023-01-25T06:20:47.434Z,103065.66
2023-01-25T06:23:15.485Z,103068.31
2023-01-25T06:25:43.654Z,103068.31
2023-01-25T06:28:11.570Z,103073.66
2023-01-25T06:30:39.328Z,103070.09
2023-01-25T06:33:07.173Z,103064.69
2023-01-25T06:35:35.527Z,103071.81
2023-01-25T06:38:04.838Z,103069.13
2023-01-25T06:40:32.629Z,103063.72
2023-01-25T06:43:07.741Z,103068.19
2023-01-25T06:45:35.640Z,103070.91
2023-01-25T06:48:03.611Z,103066.41
2023-01-25T06:50:31.605Z,103070.91
2023-01-25T06:52:59.693Z,103074.50
2023-01-25T06:55:29.019Z,103069.97
2023-01-25T06:57:56.953Z,103072.69
2023-01-25T07:00:24.932Z,103068.16
2023-01-25T07:02:52.702Z,103069.09
2023-01-25T07:05:20.632Z,103068.19
2023-01-25T07:07:48.653Z,103067.28
2023-01-25T07:10:16.739Z,103074.50
2023-01-25T07:12:45.911Z,103067.28
2023-01-25T07:15:13.891Z,103069.09
2023-01-25T07:17:41.662Z,103069.97
2023-01-25T07:20:10.687Z,103073.56
2023-01-25T07:22:38.437Z,103068.16
2023-01-25T07:25:07.669Z,103069.97
2023-01-25T07:27:36.266Z,103068.16
2023-01-25T07:30:06.531Z,103069.97
2023-01-25T07:32:34.396Z,103069.97
2023-01-25T07:35:02.165Z,103073.56
2023-01-25T07:37:29.935Z,103065.47
2023-01-25T07:39:58.239Z,103069.06
2023-01-25T07:42:26.293Z,103061.84
2023-01-25T07:45:13.102Z,103068.16
2023-01-25T07:47:41.183Z,103067.25
2023-01-25T07:50:10.576Z,103062.75
2023-01-25T07:52:38.524Z,103059.16
2023-01-25T07:55:07.461Z,103060.03
2023-01-25T07:57:35.586Z,103054.66
2023-01-25T08:00:07.028Z,103053.75
2023-01-25T08:02:41.574Z,103058.25
2023-01-25T08:05:10.877Z,103055.56
2023-01-25T08:07:39.107Z,103051.97
2023-01-25T08:10:08.071Z,103051.06
2023-01-25T08:12:35.928Z,103060.97
2023-01-25T08:15:04.187Z,103060.06
2023-01-25T08:17:33.239Z,103054.66
2023-01-25T08:20:02.829Z,103056.44
2023-01-25T08:22:30.634Z,103046.56
2023-01-25T08:25:01.084Z,103042.97
2023-01-25T08:27:29.008Z,103055.56
2023-01-25T08:29:56.789Z,103051.09
2023-01-25T08:32:24.666Z,103049.28
2023-01-25T08:34:52.473Z,103048.38
2023-01-25T08:37:21.706Z,103042.06
2023-01-25T08:39:49.503Z,103043.91
2023-01-25T08:42:17.676Z,103039.38
2023-01-25T08:44:45.489Z,103045.69
2023-01-25T08:47:13.301Z,103043.91
2023-01-25T08:49:41.144Z,103045.69
2023-01-25T08:52:09.088Z,103045.69
2023-01-25T08:54:38.215Z,103041.16
2023-01-25T08:57:06.305Z,103039.38
2023-01-25T08:59:34.145Z,103042.97
2023-01-25T09:02:02.032Z,103038.50
2023-01-25T09:04:30.241Z,103030.38
2023-01-25T09:06:58.067Z,103029.50
2023-01-25T09:09:25.965Z,103031.31
2023-01-25T09:11:55.245Z,103031.31
2023-01-25T09:14:23.111Z,103030.44
2023-01-25T09:16:50.942Z,103019.63
2023-01-25T09:19:18.779Z,103025.97
2023-01-25T09:21:48.135Z,103021.47
2023-01-25T09:24:16.035Z,103021.47
2023-01-25T09:26:50.125Z,103023.28
2023-01-25T09:29:25.142Z,103017.88
2023-01-25T09:31:53.126Z,103021.47
2023-01-25T09:34:34.771Z,103006.16
2023-01-25T09:37:02.658Z,103004.38
2023-01-25T09:39:30.426Z,102999.84
2023-01-25T09:42:38.148Z,102995.25
2023-01-25T09:45:16.045Z,103000.69
2023-01-25T09:47:48.936Z,102993.47
2023-01-25T09:50:38.623Z,102985.38
2023-01-25T09:53:33.729Z,102989.03
2023-01-25T09:56:09.779Z,102988.97
2023-01-25T09:58:42.426Z,102993.47
2023-01-25T10:01:37.620Z,102988.09
2023-01-25T10:04:14.178Z,102986.34
2023-01-25T10:06:54.982Z,102980.88
2023-01-25T10:09:37.251Z,102990.78
2023-01-25T10:12:10.657Z,102981.78
2023-01-25T10:14:39.811Z,102974.59
2023-01-25T10:17:16.710Z,102974.53
2023-01-25T10:20:04.732Z,102977.25
2023-01-25T10:22:37.702Z,102972.72
2023-01-25T10:25:29.533Z,102968.66
2023-01-25T10:28:09.883Z,102973.66
2023-01-25T10:30:44.695Z,102968.22
2023-01-25T10:33:16.778Z,102970.00
2023-01-25T10:35:47.569Z,102962.84
2023-01-25T10:38:21.178Z,102961.91
2023-01-25T10:40:54.691Z,102951.06
2023-01-25T10:43:23.765Z,102946.56
2023-01-25T10:45:52.116Z,102949.28
2023-01-25T10:48:25.223Z,102951.97
2023-01-25T10:50:54.946Z,102938.44
2023-01-25T10:53:26.394Z,102942.00
2023-01-25T10:56:01.924Z,102940.19
2023-01-25T10:58:35.620Z,102932.09
2023-01-25T11:01:06.911Z,102928.56
2023-01-25T11:03:38.567Z,102924.94
2023-01-25T11:06:07.001Z,102915.94
2023-01-25T11:08:37.664Z,102922.25
2023-01-25T11:11:33.427Z,102919.53
2023-01-25T11:14:01.784Z,102918.63
2023-01-25T11:16:35.350Z,102910.44
2023-01-25T11:19:24.741Z,102904.16
2023-01-25T11:21:53.758Z,102900.56
2023-01-25T11:24:22.271Z,102899.66
2023-01-25T11:26:50.126Z,102896.03
2023-01-25T11:29:19.937Z,102891.50
2023-01-25T11:31:50.431Z,102893.28
2023-01-25T11:34:22.761Z,102882.50
2023-01-25T11:37:07.568Z,102873.50
2023-01-25T11:39:48.844Z,102867.16
2023-01-25T11:42:29.625Z,102858.16
2023-01-25T11:45:48.868Z,102851.94
2023-01-25T11:48:43.892Z,102845.59
2023-01-25T11:51:21.159Z,102843.78
2023-01-25T11:54:06.434Z,102832.97
2023-01-25T11:56:46.375Z,102829.34
2023-01-25T11:59:28.823Z,102829.34
2023-01-25T12:02:16.053Z,102822.19
2023-01-25T12:05:09.649Z,102814.06
2023-01-25T12:07:57.176Z,102812.28
2023-01-25T12:10:40.063Z,102800.56
2023-01-25T12:13:17.050Z,102797.00
2023-01-25T12:16:16.974Z,102786.25
2023-01-25T12:19:04.959Z,102774.44
2023-01-25T12:21:46.249Z,102763.63
2023-01-25T12:24:33.391Z,102762.69
2023-01-25T12:27:14.682Z,102757.31
2023-01-25T12:29:46.423Z,102745.63
2023-01-25T12:32:20.599Z,102744.72
2023-01-25T12:34:54.340Z,102740.22
2023-01-25T12:37:29.824Z,102731.19
2023-01-25T12:40:04.494Z,102732.97
2023-01-25T12:42:37.388Z,102722.19
2023-01-25T12:45:12.672Z,102724.94
2023-01-25T12:47:45.280Z,102716.78
2023-01-25T12:50:19.079Z,102709.59
2023-01-25T12:52:50.208Z,102709.59
2023-01-25T12:55:19.993Z,102690.69
2023-01-25T12:57:58.103Z,102684.38
2023-01-25T13:00:37.406Z,102677.16
2023-01-25T13:03:19.084Z,102666.38
2023-01-25T13:05:53.142Z,102655.59
2023-01-25T13:08:34.093Z,102656.50
2023-01-25T13:11:13.853Z,102653.78
2023-01-25T13:13:41.883Z,102650.25
2023-01-25T13:16:37.538Z,102640.34
2023-01-25T13:19:05.664Z,102632.28
2023-01-25T13:21:44.906Z,102633.06
2023-01-25T13:24:21.110Z,102634.00
2023-01-25T13:27:24.796Z,102626.84
2023-01-25T13:30:00.521Z,102629.56
2023-01-25T13:33:03.572Z,102626.00
2023-01-25T13:35:45.570Z,102626.88
2023-01-25T13:38:36.139Z,102621.44
2023-01-25T13:41:10.743Z,102615.13
2023-01-25T13:43:41.929Z,102609.75
2023-01-25T13:46:13.196Z,102609.75
2023-01-25T13:49:02.745Z,102613.25
2023-01-25T13:51:37.015Z,102613.31
2023-01-25T13:54:05.117Z,102612.47
2023-01-25T13:56:35.254Z,102612.47
2023-01-25T13:59:04.584Z,102606.16
2023-01-25T14:01:35.218Z,102604.38
2023-01-25T14:04:06.190Z,102600.78
2023-01-25T14:06:36.944Z,102600.78
2023-01-25T14:09:07.745Z,102594.47
2023-01-25T14:11:45.030Z,102586.38
2023-01-25T14:14:22.010Z,102590.84
2023-01-25T14:17:03.142Z,102594.47
2023-01-25T14:19:32.206Z,102587.31
2023-01-25T14:22:22.481Z,102583.72
2023-01-25T14:25:08.472Z,102583.72
2023-01-25T14:27:37.415Z,102581.94
2023-01-25T14:30:08.181Z,102581.00
2023-01-25T14:32:36.961Z,102587.34
2023-01-25T14:35:43.528Z,102584.56
2023-01-25T14:38:25.828Z,102583.75
2023-01-25T14:40:59.306Z,102578.34
2023-01-25T14:43:27.967Z,102573.81
2023-01-25T14:45:57.273Z,102578.28
2023-01-25T14:48:40.491Z,102568.34
2023-01-25T14:51:15.469Z,102575.59
2023-01-25T14:53:47.153Z,102571.09
2023-01-25T14:56:28.013Z,102568.34
2023-01-25T14:58:59.726Z,102566.59
2023-01-25T15:01:34.153Z,102566.56
2023-01-25T15:04:02.153Z,102563.91
2023-01-25T15:06:29.976Z,102554.91
2023-01-25T15:08:57.828Z,102549.50
2023-01-25T15:11:38.805Z,102544.06
2023-01-25T15:14:16.784Z,102548.59
2023-01-25T15:16:46.357Z,102547.72
2023-01-25T15:19:29.319Z,102538.72
2023-01-25T15:21:59.803Z,102546.03
2023-01-25T15:24:29.227Z,102530.63
2023-01-25T15:26:57.159Z,102530.63
2023-01-25T15:29:27.110Z,102528.81
2023-01-25T15:31:57.432Z,102530.63
2023-01-25T15:34:29.484Z,102521.69
2023-01-25T15:36:57.392Z,102524.44
2023-01-25T15:39:25.276Z,102528.03
2023-01-25T15:41:53.186Z,102519.03
2023-01-25T15:44:21.091Z,102517.25
2023-01-25T15:46:51.865Z,102516.34
2023-01-25T15:49:26.262Z,102514.53
2023-01-25T15:51:54.315Z,102505.59
2023-01-25T15:54:22.227Z,102505.59
2023-01-25T15:56:53.906Z,102501.09
2023-01-25T15:59:21.838Z,102491.22
2023-01-25T16:01:49.672Z,102498.44
2023-01-25T16:04:17.601Z,102493.03
2023-01-25T16:06:50.025Z,102486.69
2023-01-25T16:09:20.808Z,102496.69
2023-01-25T16:11:51.777Z,102496.69
2023-01-25T16:14:19.941Z,102494.84
2023-01-25T16:16:50.589Z,102496.69
2023-01-25T16:19:22.293Z,102500.25
2023-01-25T16:21:52.278Z,102494.91
2023-01-25T16:24:20.466Z,102484.13
2023-01-25T16:26:51.854Z,102487.72
2023-01-25T16:29:20.311Z,102481.50
2023-01-25T16:31:48.332Z,102483.31
2023-01-25T16:34:16.250Z,102488.75
2023-01-25T16:36:50.210Z,102484.31
2023-01-25T16:39:21.576Z,102490.56
2023-01-25T16:41:50.215Z,102478.03
2023-01-25T16:44:18.291Z,102480.75
2023-01-25T16:46:47.425Z,102479.88
2023-01-25T16:49:17.504Z,102486.16
2023-01-25T16:51:46.036Z,102488.88
2023-01-25T16:54:13.806Z,102486.19
2023-01-25T16:56:43.031Z,102484.38
2023-01-25T16:59:11.453Z,102479.00
2023-01-25T17:01:40.759Z,102474.53
2023-01-25T17:04:09.465Z,102476.38
2023-01-25T17:06:39.688Z,102473.69
2023-01-25T17:09:22.076Z,102480.03
2023-01-25T17:11:51.783Z,102473.81
2023-01-25T17:14:21.047Z,102471.13
2023-01-25T17:16:51.397Z,102472.03
2023-01-25T17:19:20.172Z,102472.94
2023-01-25T17:21:48.072Z,102466.72
2023-01-25T17:24:18.816Z,102469.44
2023-01-25T17:26:46.709Z,102468.56
2023-01-25T17:29:16.003Z,102457.75
2023-01-25T17:31:44.435Z,102447.91
2023-01-25T17:34:16.165Z,102454.19
2023-01-25T17:36:44.645Z,102457.81
2023-01-25T17:39:15.322Z,102455.16
2023-01-25T17:41:43.544Z,102458.78
2023-01-25T17:44:11.443Z,102456.09
2023-01-25T17:46:40.947Z,102453.41
2023-01-25T17:49:12.512Z,102453.47
2023-01-25T17:51:40.751Z,102459.81
2023-01-25T17:54:08.564Z,102470.66
2023-01-25T17:56:39.374Z,102469.75
2023-01-25T17:59:08.880Z,102468.00
2023-01-25T18:01:37.230Z,102468.00
2023-01-25T18:04:09.780Z,102467.97
2023-01-25T18:06:37.860Z,102468.97
2023-01-25T18:09:07.156Z,102462.69
2023-01-25T18:11:37.119Z,102464.47
2023-01-25T18:14:08.991Z,102466.28
2023-01-25T18:16:39.533Z,102457.31
2023-01-25T18:19:09.859Z,102456.41
2023-01-25T18:21:38.321Z,102450.16
2023-01-25T18:24:22.374Z,102443.84
2023-01-25T18:26:52.202Z,102433.97
2023-01-25T18:29:37.621Z,102433.06
2023-01-25T18:32:06.523Z,102423.28
2023-01-25T18:34:35.869Z,102427.72
2023-01-25T18:37:19.336Z,102419.69
2023-01-25T18:39:48.370Z,102414.34
2023-01-25T18:42:16.281Z,102419.75
2023-01-25T18:44:48.172Z,102412.56
2023-01-25T18:47:18.670Z,102409.91
2023-01-25T18:49:49.280Z,102401.75
2023-01-25T18:52:18.256Z,102408.09
2023-01-25T18:54:46.374Z,102403.63
2023-01-25T18:57:14.833Z,102394.63
2023-01-25T18:59:42.865Z,102391.03
2023-01-25T19:02:13.231Z,102382.94
2023-01-25T19:04:41.216Z,102377.59
2023-01-25T19:07:10.378Z,102382.06
2023-01-25T19:09:38.689Z,102384.81
2023-01-25T19:12:06.812Z,102377.59
2023-01-25T19:14:34.599Z,102372.19
2023-01-25T19:17:02.431Z,102363.16
2023-01-25T19:19:32.240Z,102362.28
2023-01-25T19:22:00.791Z,102357.78
2023-01-25T19:24:30.042Z,102346.97
2023-01-25T19:26:57.951Z,102336.25
2023-01-25T19:29:25.780Z,102330.84
2023-01-25T19:31:53.681Z,102331.78
2023-01-25T19:34:21.876Z,102330.88
2023-01-25T19:36:50.594Z,102322.78
2023-01-25T19:39:19.017Z,102320.97
2023-01-25T19:41:48.473Z,102311.97
2023-01-25T19:44:16.374Z,102308.41
2023-01-25T19:46:44.349Z,102294.94
2023-01-25T19:49:13.247Z,102294.94
2023-01-25T19:51:44.365Z,102291.34
2023-01-25T19:54:15.845Z,102287.75
2023-01-25T19:56:45.950Z,102293.19
2023-01-25T19:59:16.595Z,102299.50
2023-01-25T20:01:45.199Z,102287.84
2023-01-25T20:04:14.667Z,102287.00
2023-01-25T20:06:43.196Z,102294.25
2023-01-25T20:09:14.118Z,102303.22
2023-01-25T20:11:42.411Z,102297.91
2023-01-25T20:14:13.233Z,102297.00
2023-01-25T20:16:42.785Z,102297.94
2023-01-25T20:19:12.637Z,102292.53
2023-01-25T20:21:41.121Z,102288.06
2023-01-25T20:24:10.443Z,102285.44
2023-01-25T20:26:42.616Z,102287.25
2023-01-25T20:29:12.715Z,102281.88
2023-01-25T20:31:43.322Z,102274.69
2023-01-25T20:34:13.767Z,102272.03
2023-01-25T20:36:42.544Z,102281.03
2023-01-25T20:39:13.426Z,102282.84
2023-01-25T20:41:41.408Z,102283.78
2023-01-25T20:44:11.172Z,102280.19
2023-01-25T20:46:40.508Z,102274.81
2023-01-25T20:49:11.606Z,102276.59
2023-01-25T20:51:39.873Z,102273.97
2023-01-25T20:54:07.775Z,102266.81
2023-01-25T20:56:36.004Z,102265.91
2023-01-25T20:59:04.319Z,102265.06
2023-01-25T21:01:36.616Z,102271.38
2023-01-25T21:04:05.962Z,102270.53
2023-01-25T21:06:35.508Z,102262.41
2023-01-25T21:09:03.449Z,102261.50
2023-01-25T21:11:31.626Z,102257.94
2023-01-25T21:13:59.702Z,102252.53
2023-01-25T21:16:28.216Z,102248.03
2023-01-25T21:18:58.522Z,102235.44
2023-01-25T21:21:28.475Z,102237.25
2023-01-25T21:24:00.136Z,102237.19
2023-01-25T21:26:30.185Z,102238.16
2023-01-25T21:29:00.255Z,102231.88
2023-01-25T21:31:29.305Z,102232.75
2023-01-25T21:33:57.843Z,102239.97
2023-01-25T21:36:26.132Z,102239.06
2023-01-25T21:38:55.734Z,102236.38
2023-01-25T21:41:26.479Z,102233.69
2023-01-25T21:44:13.337Z,102237.34
2023-01-25T21:46:41.676Z,102247.28
2023-01-25T21:49:28.741Z,102247.31
2023-01-25T21:51:59.943Z,102234.75
2023-01-25T21:54:29.531Z,102240.19
2023-01-25T21:57:00.631Z,102240.19
2023-01-25T21:59:28.649Z,102246.59
2023-01-25T22:01:57.296Z,102250.19
2023-01-25T22:04:27.134Z,102249.28
2023-01-25T22:06:55.245Z,102246.63
2023-01-25T22:09:23.846Z,102243.94
2023-01-25T22:11:51.830Z,102246.63
2023-01-25T22:14:23.156Z,102243.00
2023-01-25T22:16:51.448Z,102245.75
2023-01-25T22:19:19.868Z,102240.34
2023-01-25T22:21:47.769Z,102244.84
2023-01-25T22:24:16.089Z,102242.16
2023-01-25T22:26:58.745Z,102239.44
2023-01-25T22:29:27.999Z,102241.38
2023-01-25T22:31:55.802Z,102244.91
2023-01-25T22:34:23.719Z,102242.28
2023-01-25T22:36:51.531Z,102232.44
2023-01-25T22:39:19.364Z,102235.16
2023-01-25T22:41:47.204Z,102230.69
2023-01-25T22:44:16.576Z,102240.59
2023-01-25T22:46:46.309Z,102234.34
2023-01-25T22:49:14.223Z,102230.81
2023-01-25T22:51:42.092Z,102241.59
2023-01-25T22:54:09.970Z,102230.84
2023-01-25T22:56:37.835Z,102234.47
2023-01-25T22:59:06.644Z,102215.59
2023-01-25T23:01:36.042Z,102223.69
2023-01-25T23:04:05.367Z,102224.56
2023-01-25T23:06:34.361Z,102212.03
2023-01-25T23:09:06.508Z,102209.31
2023-01-25T23:11:37.720Z,102213.84
2023-01-25T23:14:24.581Z,102221.03
2023-01-25T23:16:52.504Z,102215.75
2023-01-25T23:19:20.811Z,102209.38
2023-01-25T23:21:48.649Z,102202.25
2023-01-25T23:24:16.532Z,102194.22
2023-01-25T23:26:46.133Z,102203.19
2023-01-25T23:29:14.505Z,102200.53
2023-01-25T23:31:42.570Z,102198.72
2023-01-25T23:34:12.568Z,102195.09
2023-01-25T23:36:42.325Z,102187.97
2023-01-25T23:39:12.774Z,102180.78
2023-01-25T23:41:40.615Z,102183.50
2023-01-25T23:44:09.135Z,102188.00
2023-01-25T23:46:37.358Z,102193.38
2023-01-25T23:49:05.217Z,102184.47
2023-01-25T23:51:33.019Z,102186.22
2023-01-25T23:54:02.165Z,102179.03
2023-01-25T23:56:30.071Z,102161.97
2023-01-25T23:58:58.740Z,102161.97
